Time;durP1;ratioP1;P1;durP2;ratioP2;P2;SDS_P1;SDS_P2;PMS_P1;PMS_P2;Temp;Humidity;BMP_temperature;BMP_pressure;BME280_temperature;BME280_humidity;BME280_pressure;Samples;Min_cycle;Max_cycle;Signal;HPM_P1;HPM_P2
2023/06/20 00:00:32;;;;;;;4.30;4.00;;;;;;;;;;5064840;28;20597;-67
2023/06/20 00:02:59;;;;;;;3.92;3.63;;;;;;;;;;5064675;28;20435;-67
2023/06/20 00:05:26;;;;;;;4.20;3.80;;;;;;;;;;5069800;28;20850;-71
2023/06/20 00:07:54;;;;;;;3.75;3.45;;;;;;;;;;5066287;28;20435;-69
2023/06/20 00:10:21;;;;;;;4.38;3.83;;;;;;;;;;5065839;28;20438;-70
2023/06/20 00:12:48;;;;;;;5.38;4.00;;;;;;;;;;5065040;28;20438;-69
2023/06/20 00:15:15;;;;;;;4.40;4.00;;;;;;;;;;5077769;28;20439;-69
2023/06/20 00:17:43;;;;;;;4.07;3.67;;;;;;;;;;5063760;28;20906;-69
2023/06/20 00:20:11;;;;;;;4.30;3.90;;;;;;;;;;5069961;28;20905;-69
2023/06/20 00:22:38;;;;;;;4.60;3.88;;;;;;;;;;5066621;28;20512;-69
2023/06/20 00:25:05;;;;;;;4.80;4.30;;;;;;;;;;5087903;28;20495;-70
2023/06/20 00:27:32;;;;;;;4.57;4.10;;;;;;;;;;5064267;28;20411;-69
2023/06/20 00:29:59;;;;;;;5.00;4.47;;;;;;;;;;5062701;28;20438;-69
2023/06/20 00:32:27;;;;;;;4.60;4.20;;;;;;;;;;5064951;28;20434;-69
2023/06/20 00:34:58;;;;;;;4.97;4.33;;;;;;;;;;5069856;28;20536;-69
2023/06/20 00:37:25;;;;;;;6.20;4.20;;;;;;;;;;5071093;28;20451;-72
2023/06/20 00:39:52;;;;;;;5.70;4.75;;;;;;;;;;5073916;28;20770;-69
2023/06/20 00:42:19;;;;;;;5.85;4.60;;;;;;;;;;5074473;28;20426;-70
2023/06/20 00:44:47;;;;;;;6.27;4.33;;;;;;;;;;5064048;28;20423;-68
2023/06/20 00:47:16;;;;;;;5.50;4.80;;;;;;;;;;5077369;28;20406;-70
2023/06/20 00:49:44;;;;;;;5.30;4.20;;;;;;;;;;5070257;28;20495;-69
2023/06/20 00:52:13;;;;;;;4.88;4.47;;;;;;;;;;5069268;28;20902;-69
2023/06/20 00:54:40;;;;;;;5.47;4.55;;;;;;;;;;5069866;28;20937;-69
2023/06/20 00:57:08;;;;;;;4.83;4.27;;;;;;;;;;5063547;28;20419;-70
2023/06/20 00:59:35;;;;;;;4.68;4.28;;;;;;;;;;5082112;28;20435;-68
2023/06/20 01:02:03;;;;;;;5.10;4.50;;;;;;;;;;5067362;28;21187;-69
2023/06/20 01:04:31;;;;;;;5.60;4.80;;;;;;;;;;5066412;28;20441;-69
2023/06/20 01:07:00;;;;;;;5.45;4.70;;;;;;;;;;5071708;28;20418;-69
2023/06/20 01:09:31;;;;;;;4.80;4.40;;;;;;;;;;5076084;28;20512;-67
2023/06/20 01:12:02;;;;;;;6.30;5.00;;;;;;;;;;5064305;28;20503;-68
2023/06/20 01:14:32;;;;;;;5.50;4.78;;;;;;;;;;5120403;22;20951;-70
2023/06/20 01:17:01;;;;;;;5.68;4.85;;;;;;;;;;5130461;27;20892;-70
2023/06/20 01:19:37;;;;;;;7.00;5.07;;;;;;;;;;5123668;27;20432;-70
2023/06/20 01:22:08;;;;;;;5.67;4.90;;;;;;;;;;5127000;27;20452;-69
2023/06/20 01:24:39;;;;;;;5.47;4.80;;;;;;;;;;5103954;28;20427;-70
2023/06/20 01:27:10;;;;;;;4.80;4.30;;;;;;;;;;5100920;28;20785;-70
2023/06/20 01:29:39;;;;;;;5.40;4.90;;;;;;;;;;5109079;28;20587;-67
2023/06/20 01:32:10;;;;;;;6.05;4.63;;;;;;;;;;5110285;28;20417;-68
2023/06/20 01:34:41;;;;;;;6.22;5.00;;;;;;;;;;5107723;27;20759;-70
2023/06/20 01:37:11;;;;;;;5.50;4.93;;;;;;;;;;5110225;28;20420;-70
2023/06/20 01:39:43;;;;;;;5.07;4.68;;;;;;;;;;5118291;28;20455;-68
2023/06/20 01:42:12;;;;;;;6.30;4.90;;;;;;;;;;5121488;28;20954;-67
2023/06/20 01:44:39;;;;;;;5.35;4.80;;;;;;;;;;5119894;28;20467;-66
2023/06/20 01:47:08;;;;;;;5.35;4.88;;;;;;;;;;5118339;28;20458;-67
2023/06/20 01:49:35;;;;;;;5.60;5.10;;;;;;;;;;5110228;28;20419;-70
2023/06/20 01:52:03;;;;;;;5.90;5.30;;;;;;;;;;5110190;28;20416;-68
2023/06/20 01:54:31;;;;;;;6.03;5.50;;;;;;;;;;5109273;28;20435;-68
2023/06/20 01:57:00;;;;;;;5.68;5.28;;;;;;;;;;5100540;28;20501;-68
2023/06/20 01:59:27;;;;;;;5.07;4.68;;;;;;;;;;5103360;27;20402;-67
2023/06/20 02:01:56;;;;;;;5.55;4.90;;;;;;;;;;5116714;27;20412;-68
2023/06/20 02:04:24;;;;;;;5.65;4.80;;;;;;;;;;5108300;28;20420;-68
2023/06/20 02:06:52;;;;;;;6.25;5.30;;;;;;;;;;5123159;27;20801;-71
2023/06/20 02:09:19;;;;;;;5.70;4.90;;;;;;;;;;5100749;28;20445;-69
2023/06/20 02:11:47;;;;;;;6.43;5.40;;;;;;;;;;5105606;28;20419;-70
2023/06/20 02:14:15;;;;;;;5.95;5.35;;;;;;;;;;5109781;28;20408;-70
2023/06/20 02:16:44;;;;;;;5.97;5.40;;;;;;;;;;5109791;28;20416;-70
2023/06/20 02:19:11;;;;;;;5.40;4.90;;;;;;;;;;5108784;28;20420;-69
2023/06/20 02:21:39;;;;;;;5.25;4.85;;;;;;;;;;5108842;28;20416;-70
2023/06/20 02:24:06;;;;;;;5.35;4.95;;;;;;;;;;5107872;28;20420;-69
2023/06/20 02:26:35;;;;;;;5.97;4.93;;;;;;;;;;5100529;28;20890;-70
2023/06/20 02:29:05;;;;;;;5.95;5.40;;;;;;;;;;5108430;28;20412;-69
2023/06/20 02:31:34;;;;;;;5.60;5.10;;;;;;;;;;5108956;28;20418;-70
2023/06/20 02:34:04;;;;;;;5.45;4.95;;;;;;;;;;5108653;28;20902;-68
2023/06/20 02:36:31;;;;;;;5.32;4.82;;;;;;;;;;5113340;28;20413;-70
2023/06/20 02:38:58;;;;;;;5.72;5.13;;;;;;;;;;5100647;28;20422;-69
2023/06/20 02:41:26;;;;;;;4.85;4.45;;;;;;;;;;5109252;28;20420;-70
2023/06/20 02:43:53;;;;;;;5.95;5.35;;;;;;;;;;5108804;28;20416;-70
2023/06/20 02:46:22;;;;;;;5.70;5.10;;;;;;;;;;5108951;28;20408;-68
2023/06/20 02:48:58;;;;;;;5.50;4.95;;;;;;;;;;5108565;28;20416;-71
2023/06/20 02:51:25;;;;;;;5.60;5.03;;;;;;;;;;5109465;28;20411;-70
2023/06/20 02:53:59;;;;;;;5.43;5.03;;;;;;;;;;5110868;28;20941;-69
2023/06/20 02:56:29;;;;;;;5.43;5.03;;;;;;;;;;5108528;28;20419;-69
2023/06/20 02:58:56;;;;;;;5.43;5.03;;;;;;;;;;5115451;28;20710;-68
2023/06/20 03:01:25;;;;;;;5.70;5.20;;;;;;;;;;5113657;28;20412;-70
2023/06/20 03:03:55;;;;;;;5.80;5.30;;;;;;;;;;5118459;28;20956;-69
2023/06/20 03:06:27;;;;;;;5.82;5.22;;;;;;;;;;5117601;28;20431;-68
2023/06/20 03:08:55;;;;;;;6.35;5.75;;;;;;;;;;5109087;28;20897;-70
2023/06/20 03:11:22;;;;;;;6.57;5.97;;;;;;;;;;5110852;28;20786;-69
2023/06/20 03:13:49;;;;;;;6.55;6.05;;;;;;;;;;5117597;28;20415;-70
2023/06/20 03:16:16;;;;;;;6.10;5.60;;;;;;;;;;5116845;28;20412;-67
2023/06/20 03:18:46;;;;;;;5.85;5.30;;;;;;;;;;5118595;28;20431;-67
2023/06/20 03:21:15;;;;;;;6.20;5.70;;;;;;;;;;5111240;28;20424;-67
2023/06/20 03:23:43;;;;;;;5.90;5.40;;;;;;;;;;5118407;28;20404;-70
2023/06/20 03:26:10;;;;;;;5.72;5.25;;;;;;;;;;5117506;28;20539;-67
2023/06/20 03:28:37;;;;;;;5.90;5.40;;;;;;;;;;5136258;28;20411;-70
2023/06/20 03:31:04;;;;;;;6.80;6.20;;;;;;;;;;5120272;28;20409;-70
2023/06/20 03:33:31;;;;;;;6.10;5.60;;;;;;;;;;5122396;27;20420;-69
2023/06/20 03:36:00;;;;;;;6.65;6.05;;;;;;;;;;5114340;28;20429;-69
2023/06/20 03:38:28;;;;;;;6.40;5.80;;;;;;;;;;5122148;27;20955;-69
2023/06/20 03:40:55;;;;;;;5.70;5.30;;;;;;;;;;5129992;27;20501;-68
2023/06/20 03:43:22;;;;;;;6.30;5.70;;;;;;;;;;5129820;27;20402;-69
2023/06/20 03:45:49;;;;;;;6.13;5.55;;;;;;;;;;5110172;27;20917;-68
2023/06/20 03:48:18;;;;;;;5.95;5.45;;;;;;;;;;5117974;28;20404;-70
2023/06/20 03:50:46;;;;;;;6.05;5.53;;;;;;;;;;5116890;28;20469;-68
2023/06/20 03:53:13;;;;;;;6.10;5.60;;;;;;;;;;5107070;28;20432;-70
2023/06/20 03:55:41;;;;;;;5.80;5.30;;;;;;;;;;5103444;28;20454;-68
2023/06/20 03:58:08;;;;;;;6.20;5.70;;;;;;;;;;5115638;28;20477;-69
2023/06/20 04:00:35;;;;;;;7.00;6.40;;;;;;;;;;5120511;27;20430;-71
2023/06/20 04:03:03;;;;;;;6.50;5.90;;;;;;;;;;5125238;27;20495;-71
2023/06/20 04:05:30;;;;;;;6.90;6.18;;;;;;;;;;5112406;28;20905;-71
2023/06/20 04:07:57;;;;;;;6.93;6.35;;;;;;;;;;5129727;27;20448;-70
2023/06/20 04:10:24;;;;;;;6.40;5.80;;;;;;;;;;5135444;28;20408;-71
2023/06/20 04:12:52;;;;;;;6.90;6.40;;;;;;;;;;5136645;28;20407;-71
2023/06/20 04:15:19;;;;;;;7.13;6.53;;;;;;;;;;5127471;28;20409;-71
2023/06/20 04:17:47;;;;;;;6.78;6.22;;;;;;;;;;5102759;28;20432;-71
2023/06/20 04:20:14;;;;;;;6.30;5.80;;;;;;;;;;5109122;28;20599;-72
2023/06/20 04:22:42;;;;;;;6.28;5.78;;;;;;;;;;5103466;28;20491;-68
2023/06/20 04:25:09;;;;;;;6.65;6.15;;;;;;;;;;5104635;27;20430;-71
2023/06/20 04:27:36;;;;;;;7.10;6.40;;;;;;;;;;5103403;28;20461;-68
2023/06/20 04:30:06;;;;;;;6.60;5.90;;;;;;;;;;5109702;27;20427;-69
2023/06/20 04:32:33;;;;;;;6.90;6.28;;;;;;;;;;5107473;27;20424;-70
2023/06/20 04:35:00;;;;;;;7.05;6.38;;;;;;;;;;5108539;27;20463;-70
2023/06/20 04:37:29;;;;;;;6.22;5.72;;;;;;;;;;5106942;28;20480;-68
2023/06/20 04:39:57;;;;;;;6.80;6.20;;;;;;;;;;5100344;28;20424;-67
2023/06/20 04:42:24;;;;;;;6.38;5.88;;;;;;;;;;5108537;27;20416;-69
2023/06/20 04:44:51;;;;;;;6.57;5.88;;;;;;;;;;5096318;28;20825;-69
2023/06/20 04:47:19;;;;;;;6.50;6.00;;;;;;;;;;5102839;27;21400;-68
2023/06/20 04:49:46;;;;;;;7.10;6.50;;;;;;;;;;5105443;28;20909;-71
2023/06/20 04:52:13;;;;;;;6.88;6.28;;;;;;;;;;5104959;28;20433;-68
2023/06/20 04:54:42;;;;;;;6.50;6.00;;;;;;;;;;5125809;28;20450;-68
2023/06/20 04:57:09;;;;;;;6.90;6.30;;;;;;;;;;5122518;28;20465;-68
2023/06/20 04:59:38;;;;;;;6.95;6.35;;;;;;;;;;5110927;28;20438;-70
2023/06/20 05:02:06;;;;;;;6.03;5.53;;;;;;;;;;5112871;28;20481;-68
2023/06/20 05:04:36;;;;;;;5.40;5.00;;;;;;;;;;5114949;28;20419;-69
2023/06/20 05:07:03;;;;;;;6.15;5.65;;;;;;;;;;5122489;28;21074;-67
2023/06/20 05:09:30;;;;;;;6.55;6.05;;;;;;;;;;5104309;27;20818;-68
2023/06/20 05:11:57;;;;;;;6.60;6.00;;;;;;;;;;5096454;28;20923;-66
2023/06/20 05:14:24;;;;;;;5.90;5.40;;;;;;;;;;5099144;28;20439;-66
2023/06/20 05:16:51;;;;;;;6.47;5.90;;;;;;;;;;5106707;28;20431;-67
2023/06/20 05:19:18;;;;;;;5.90;5.50;;;;;;;;;;5105399;28;20430;-66
2023/06/20 05:21:47;;;;;;;5.65;5.25;;;;;;;;;;5103474;27;20432;-66
2023/06/20 05:24:14;;;;;;;5.70;5.30;;;;;;;;;;5107682;28;20443;-65
2023/06/20 05:26:41;;;;;;;5.70;5.20;;;;;;;;;;5106744;28;21149;-66
2023/06/20 05:29:08;;;;;;;6.53;5.93;;;;;;;;;;5102314;28;20431;-66
2023/06/20 05:31:40;;;;;;;6.13;5.35;;;;;;;;;;5100214;28;20420;-67
2023/06/20 05:34:07;;;;;;;6.20;5.60;;;;;;;;;;5097209;27;20425;-66
2023/06/20 05:36:34;;;;;;;5.50;5.00;;;;;;;;;;5103197;27;20917;-67
2023/06/20 05:39:04;;;;;;;6.20;5.60;;;;;;;;;;5103224;28;20777;-66
2023/06/20 05:41:31;;;;;;;5.60;5.10;;;;;;;;;;5100832;28;20435;-68
2023/06/20 05:43:58;;;;;;;6.10;5.50;;;;;;;;;;5099249;28;20413;-66
2023/06/20 05:46:25;;;;;;;5.70;5.20;;;;;;;;;;5096092;28;20424;-68
2023/06/20 05:48:52;;;;;;;6.00;5.50;;;;;;;;;;5104913;28;20412;-68
2023/06/20 05:51:19;;;;;;;5.80;5.22;;;;;;;;;;5099660;28;20430;-67
2023/06/20 05:53:46;;;;;;;6.25;5.65;;;;;;;;;;5106405;28;20428;-66
2023/06/20 05:56:14;;;;;;;6.80;5.38;;;;;;;;;;5103650;28;20414;-66
2023/06/20 05:58:42;;;;;;;6.00;5.50;;;;;;;;;;5109396;28;20432;-68
2023/06/20 06:01:09;;;;;;;6.20;5.70;;;;;;;;;;5105792;28;20512;-67
2023/06/20 06:03:36;;;;;;;5.78;5.30;;;;;;;;;;5105741;28;20446;-66
2023/06/20 06:06:03;;;;;;;6.55;5.72;;;;;;;;;;5100078;28;20439;-68
2023/06/20 06:08:33;;;;;;;6.43;5.70;;;;;;;;;;5098257;27;20421;-67
2023/06/20 06:11:00;;;;;;;6.07;5.57;;;;;;;;;;5108999;27;20428;-67
2023/06/20 06:13:29;;;;;;;6.28;5.68;;;;;;;;;;5110491;28;20424;-67
2023/06/20 06:15:56;;;;;;;5.95;5.25;;;;;;;;;;5103436;28;20419;-68
2023/06/20 06:18:23;;;;;;;6.18;5.68;;;;;;;;;;5112762;28;20424;-67
2023/06/20 06:20:50;;;;;;;6.05;5.55;;;;;;;;;;5108509;28;20428;-68
2023/06/20 06:23:17;;;;;;;5.60;5.03;;;;;;;;;;5101228;28;20428;-68
2023/06/20 06:25:46;;;;;;;5.90;5.30;;;;;;;;;;5106656;28;20583;-72
2023/06/20 06:28:13;;;;;;;5.35;4.82;;;;;;;;;;5101231;28;20422;-70
2023/06/20 06:30:41;;;;;;;4.90;4.50;;;;;;;;;;5101587;28;20957;-72
2023/06/20 06:33:09;;;;;;;5.50;5.00;;;;;;;;;;5102810;28;20431;-71
2023/06/20 06:35:36;;;;;;;7.00;4.80;;;;;;;;;;5107999;28;20428;-71
2023/06/20 06:38:04;;;;;;;5.33;4.90;;;;;;;;;;5103432;28;20427;-72
2023/06/20 06:40:31;;;;;;;5.35;4.85;;;;;;;;;;5102248;28;20423;-71
2023/06/20 06:42:58;;;;;;;5.55;5.03;;;;;;;;;;5100881;28;20410;-68
2023/06/20 06:45:25;;;;;;;5.88;4.95;;;;;;;;;;5105710;28;20436;-68
2023/06/20 06:47:54;;;;;;;5.28;4.88;;;;;;;;;;5103644;28;20443;-67
2023/06/20 06:50:21;;;;;;;5.10;4.70;;;;;;;;;;5104315;28;20501;-69
2023/06/20 06:52:49;;;;;;;5.00;4.60;;;;;;;;;;5101586;28;20421;-71
2023/06/20 06:55:16;;;;;;;5.55;5.05;;;;;;;;;;5098012;28;20447;-71
2023/06/20 06:57:43;;;;;;;5.20;4.70;;;;;;;;;;5106868;28;20489;-72
2023/06/20 07:00:11;;;;;;;5.50;5.00;;;;;;;;;;5106267;28;20435;-70
2023/06/20 07:02:39;;;;;;;6.22;4.93;;;;;;;;;;5105804;28;20428;-71
2023/06/20 07:05:08;;;;;;;5.55;4.50;;;;;;;;;;5106592;28;20443;-71
2023/06/20 07:07:35;;;;;;;5.28;4.60;;;;;;;;;;5110654;28;20955;-72
2023/06/20 07:10:02;;;;;;;4.72;4.32;;;;;;;;;;5105353;27;20605;-70
2023/06/20 07:12:29;;;;;;;4.80;4.40;;;;;;;;;;5105321;28;20428;-70
2023/06/20 07:14:57;;;;;;;5.32;4.93;;;;;;;;;;5096945;22;20500;-69
2023/06/20 07:17:24;;;;;;;4.60;4.20;;;;;;;;;;5061034;28;20533;-69
2023/06/20 07:19:51;;;;;;;5.07;4.57;;;;;;;;;;5065347;28;20821;-68
2023/06/20 07:22:19;;;;;;;4.55;4.22;;;;;;;;;;5063154;28;20429;-68
2023/06/20 07:24:47;;;;;;;4.65;3.90;;;;;;;;;;5065253;28;20432;-68
2023/06/20 07:27:14;;;;;;;4.60;4.30;;;;;;;;;;5064626;28;20561;-68
2023/06/20 07:29:41;;;;;;;4.72;4.22;;;;;;;;;;5064501;28;20498;-68
2023/06/20 07:32:09;;;;;;;4.97;4.00;;;;;;;;;;5066665;28;20449;-67
2023/06/20 07:34:36;;;;;;;4.70;4.30;;;;;;;;;;5067085;28;20430;-67
2023/06/20 07:37:03;;;;;;;5.07;4.57;;;;;;;;;;5066090;28;21028;-66
2023/06/20 07:39:31;;;;;;;5.38;4.65;;;;;;;;;;5073208;28;20423;-67
2023/06/20 07:41:58;;;;;;;4.97;4.57;;;;;;;;;;5062343;28;20965;-67
2023/06/20 07:44:25;;;;;;;4.80;4.40;;;;;;;;;;5063469;28;20890;-67
2023/06/20 07:46:53;;;;;;;5.30;4.80;;;;;;;;;;5062186;28;20443;-66
2023/06/20 07:49:20;;;;;;;4.75;4.35;;;;;;;;;;5065011;28;20432;-67
2023/06/20 07:51:47;;;;;;;4.85;4.47;;;;;;;;;;5073425;28;20904;-67
2023/06/20 07:54:15;;;;;;;5.07;4.63;;;;;;;;;;5065894;28;20448;-67
2023/06/20 07:56:43;;;;;;;7.20;4.50;;;;;;;;;;5066370;28;20910;-70
2023/06/20 07:59:10;;;;;;;4.70;4.30;;;;;;;;;;5066301;28;20865;-69
2023/06/20 08:01:37;;;;;;;5.40;5.00;;;;;;;;;;5067059;28;20917;-69
2023/06/20 08:04:04;;;;;;;4.93;4.50;;;;;;;;;;5063227;28;20794;-69
2023/06/20 08:06:32;;;;;;;4.67;4.20;;;;;;;;;;5063091;28;20539;-69
2023/06/20 08:08:59;;;;;;;4.90;4.50;;;;;;;;;;5065186;28;20440;-69
2023/06/20 08:11:26;;;;;;;4.88;4.47;;;;;;;;;;5062820;28;20412;-68
2023/06/20 08:13:55;;;;;;;5.10;4.70;;;;;;;;;;5057842;28;20464;-69
2023/06/20 08:16:22;;;;;;;5.40;4.90;;;;;;;;;;5062147;28;20420;-69
2023/06/20 08:18:49;;;;;;;4.75;4.35;;;;;;;;;;5060013;28;20418;-66
2023/06/20 08:21:16;;;;;;;5.00;4.60;;;;;;;;;;5058874;28;20495;-68
2023/06/20 08:23:44;;;;;;;4.95;4.55;;;;;;;;;;5063166;28;20453;-67
2023/06/20 08:26:11;;;;;;;5.30;4.80;;;;;;;;;;5061848;28;20741;-68
2023/06/20 08:28:38;;;;;;;5.00;4.60;;;;;;;;;;5066733;28;20416;-69
2023/06/20 08:31:06;;;;;;;4.88;4.47;;;;;;;;;;5061059;28;20733;-69
2023/06/20 08:33:33;;;;;;;4.82;4.43;;;;;;;;;;5063680;28;20419;-66
2023/06/20 08:36:01;;;;;;;4.90;4.60;;;;;;;;;;5065958;28;20423;-67
2023/06/20 08:38:29;;;;;;;4.43;4.07;;;;;;;;;;5061456;28;20845;-67
2023/06/20 08:40:56;;;;;;;4.43;4.03;;;;;;;;;;5063333;28;20885;-67
2023/06/20 08:43:23;;;;;;;4.40;4.07;;;;;;;;;;5056957;28;20426;-67
2023/06/20 08:45:55;;;;;;;4.60;4.20;;;;;;;;;;5063465;28;20452;-69
2023/06/20 08:48:23;;;;;;;4.82;4.43;;;;;;;;;;5064491;28;20631;-69
2023/06/20 08:50:51;;;;;;;4.50;4.10;;;;;;;;;;5054976;28;20446;-69
2023/06/20 08:53:19;;;;;;;4.50;4.10;;;;;;;;;;5058654;28;20433;-69
2023/06/20 08:55:47;;;;;;;4.90;4.50;;;;;;;;;;5061719;28;20514;-69
2023/06/20 08:58:14;;;;;;;4.18;3.88;;;;;;;;;;5065822;28;20415;-67
2023/06/20 09:00:43;;;;;;;4.70;4.40;;;;;;;;;;5061231;28;20458;-67
2023/06/20 09:03:11;;;;;;;4.70;4.40;;;;;;;;;;5061868;28;21672;-67
2023/06/20 09:05:42;;;;;;;4.30;4.00;;;;;;;;;;5065011;28;20499;-67
2023/06/20 09:08:12;;;;;;;4.60;4.30;;;;;;;;;;5063616;28;20456;-67
2023/06/20 09:10:40;;;;;;;4.32;4.03;;;;;;;;;;5064161;28;20793;-67
2023/06/20 09:13:08;;;;;;;4.00;3.72;;;;;;;;;;5062889;28;20732;-69
2023/06/20 09:15:36;;;;;;;4.47;4.17;;;;;;;;;;5060686;28;20443;-69
2023/06/20 09:18:03;;;;;;;4.60;4.20;;;;;;;;;;5060801;28;20427;-69
2023/06/20 09:20:31;;;;;;;4.77;4.47;;;;;;;;;;5064307;28;20494;-68
2023/06/20 09:22:59;;;;;;;4.40;4.10;;;;;;;;;;5064393;28;20925;-69
2023/06/20 09:25:27;;;;;;;4.30;3.90;;;;;;;;;;5070624;28;20436;-69
2023/06/20 09:27:55;;;;;;;5.05;4.75;;;;;;;;;;5073661;28;20936;-68
2023/06/20 09:30:22;;;;;;;5.57;5.07;;;;;;;;;;5068883;28;20435;-71
2023/06/20 09:32:50;;;;;;;5.30;4.40;;;;;;;;;;5060358;28;20787;-72
2023/06/20 09:35:17;;;;;;;5.18;4.78;;;;;;;;;;5059862;28;20433;-69
2023/06/20 09:37:46;;;;;;;5.00;4.60;;;;;;;;;;5051786;28;20762;-67
2023/06/20 09:40:15;;;;;;;4.90;4.50;;;;;;;;;;5063397;28;20937;-67
2023/06/20 09:42:43;;;;;;;4.90;4.60;;;;;;;;;;5065060;28;20798;-67
2023/06/20 09:45:11;;;;;;;5.13;4.73;;;;;;;;;;5061748;28;20432;-69
2023/06/20 09:47:38;;;;;;;4.72;4.43;;;;;;;;;;5062935;28;20423;-67
2023/06/20 09:50:07;;;;;;;4.50;4.20;;;;;;;;;;5064097;28;20422;-68
2023/06/20 09:52:35;;;;;;;5.25;4.85;;;;;;;;;;5063112;28;20500;-67
2023/06/20 09:55:02;;;;;;;5.00;4.70;;;;;;;;;;5059908;28;20445;-67
2023/06/20 09:57:34;;;;;;;5.05;4.65;;;;;;;;;;5060182;28;20918;-66
2023/06/20 10:00:02;;;;;;;4.80;4.50;;;;;;;;;;5064563;28;20435;-67
2023/06/20 10:02:30;;;;;;;5.00;4.70;;;;;;;;;;5059723;28;20522;-68
2023/06/20 10:04:58;;;;;;;4.93;4.53;;;;;;;;;;5056367;28;20850;-66
2023/06/20 10:07:26;;;;;;;5.45;5.05;;;;;;;;;;5056739;28;20465;-65
2023/06/20 10:09:56;;;;;;;5.00;4.60;;;;;;;;;;5061566;28;20427;-67
2023/06/20 10:12:23;;;;;;;4.70;4.40;;;;;;;;;;5057457;28;20439;-67
2023/06/20 10:14:52;;;;;;;4.50;4.20;;;;;;;;;;5061140;28;20435;-69
2023/06/20 10:17:30;;;;;;;4.68;4.30;;;;;;;;;;5061910;28;20435;-68
2023/06/20 10:19:58;;;;;;;4.80;4.35;;;;;;;;;;5056197;28;20427;-69
2023/06/20 10:22:34;;;;;;;4.57;4.20;;;;;;;;;;5061903;28;20412;-67
2023/06/20 10:25:11;;;;;;;4.70;4.40;;;;;;;;;;5062482;28;20427;-66
2023/06/20 10:27:38;;;;;;;4.15;3.85;;;;;;;;;;5055486;28;20510;-66
2023/06/20 10:30:08;;;;;;;4.50;4.20;;;;;;;;;;5059938;28;20427;-65
2023/06/20 10:32:35;;;;;;;4.57;4.28;;;;;;;;;;5062482;28;20784;-67
2023/06/20 10:35:07;;;;;;;4.60;4.30;;;;;;;;;;5063213;28;20841;-69
2023/06/20 10:37:39;;;;;;;4.85;4.45;;;;;;;;;;5062596;28;20430;-69
2023/06/20 10:40:10;;;;;;;4.40;4.10;;;;;;;;;;5056609;28;20426;-67
2023/06/20 10:42:38;;;;;;;4.72;4.32;;;;;;;;;;5058305;28;20480;-67
2023/06/20 10:45:24;;;;;;;4.50;4.20;;;;;;;;;;5066663;28;20536;-67
2023/06/20 10:47:52;;;;;;;4.10;3.78;;;;;;;;;;5064233;28;20925;-68
2023/06/20 10:50:19;;;;;;;4.78;4.40;;;;;;;;;;5066211;28;20413;-66
2023/06/20 10:52:47;;;;;;;3.90;3.60;;;;;;;;;;5063601;28;20435;-67
2023/06/20 10:55:14;;;;;;;4.78;4.40;;;;;;;;;;5067211;28;20901;-68
2023/06/20 10:57:44;;;;;;;4.20;3.90;;;;;;;;;;5067510;28;20869;-68
2023/06/20 11:00:14;;;;;;;4.43;4.13;;;;;;;;;;5065228;28;20800;-69
2023/06/20 11:02:43;;;;;;;4.40;4.10;;;;;;;;;;5064893;28;20458;-68
2023/06/20 11:05:10;;;;;;;4.45;4.13;;;;;;;;;;5064354;28;20996;-69
2023/06/20 11:07:50;;;;;;;4.53;4.22;;;;;;;;;;5066288;28;20484;-68
2023/06/20 11:10:18;;;;;;;4.30;4.00;;;;;;;;;;5059482;28;20454;-68
2023/06/20 11:12:45;;;;;;;4.60;4.30;;;;;;;;;;5064260;28;20451;-67
2023/06/20 11:15:22;;;;;;;4.40;4.00;;;;;;;;;;5063221;28;21093;-67
2023/06/20 11:17:51;;;;;;;4.20;3.90;;;;;;;;;;5064358;28;20435;-68
2023/06/20 11:20:18;;;;;;;4.30;4.00;;;;;;;;;;5074686;28;21002;-69
2023/06/20 11:22:46;;;;;;;4.10;3.90;;;;;;;;;;5067032;28;20766;-68
2023/06/20 11:25:21;;;;;;;4.22;3.90;;;;;;;;;;5065704;28;20435;-68
2023/06/20 11:27:48;;;;;;;3.83;3.53;;;;;;;;;;5066165;28;20492;-69
2023/06/20 11:30:16;;;;;;;3.80;3.50;;;;;;;;;;5062193;28;20908;-68
2023/06/20 11:32:56;;;;;;;4.43;4.03;;;;;;;;;;5061503;28;20518;-69
2023/06/20 11:35:23;;;;;;;3.97;3.67;;;;;;;;;;5062787;28;20475;-69
2023/06/20 11:37:50;;;;;;;4.00;3.60;;;;;;;;;;5064884;28;20805;-68
2023/06/20 11:40:17;;;;;;;4.30;4.00;;;;;;;;;;5062140;28;20458;-68
2023/06/20 11:42:44;;;;;;;4.22;3.90;;;;;;;;;;5063775;28;20836;-68
2023/06/20 11:45:12;;;;;;;3.90;3.70;;;;;;;;;;5062767;28;20442;-67
2023/06/20 11:47:39;;;;;;;4.15;3.85;;;;;;;;;;5058228;28;20434;-67
2023/06/20 11:50:22;;;;;;;3.80;3.60;;;;;;;;;;5067731;28;20420;-68
2023/06/20 11:52:56;;;;;;;4.03;3.72;;;;;;;;;;5065124;28;20824;-68
2023/06/20 11:55:37;;;;;;;3.80;3.40;;;;;;;;;;5065140;28;20438;-69
2023/06/20 11:58:05;;;;;;;3.72;3.40;;;;;;;;;;5061506;28;20430;-68
2023/06/20 12:00:32;;;;;;;4.30;4.00;;;;;;;;;;5065099;28;20433;-69
2023/06/20 12:02:59;;;;;;;3.60;3.40;;;;;;;;;;5062100;28;20431;-69
2023/06/20 12:05:33;;;;;;;3.50;3.30;;;;;;;;;;5064213;28;20557;-67
2023/06/20 12:08:00;;;;;;;3.28;2.97;;;;;;;;;;5060313;28;20438;-67
2023/06/20 12:10:28;;;;;;;3.80;3.60;;;;;;;;;;5062574;28;20455;-69
2023/06/20 12:12:55;;;;;;;3.50;3.00;;;;;;;;;;5064524;28;20428;-68
2023/06/20 12:15:23;;;;;;;2.90;2.70;;;;;;;;;;5064509;28;20435;-69
2023/06/20 12:17:50;;;;;;;3.28;3.08;;;;;;;;;;5070105;28;20466;-69
2023/06/20 12:20:17;;;;;;;3.30;3.10;;;;;;;;;;5069184;28;20431;-69
2023/06/20 12:22:45;;;;;;;3.40;3.10;;;;;;;;;;5065439;28;20549;-69
2023/06/20 12:25:12;;;;;;;3.80;3.17;;;;;;;;;;5063483;28;20440;-67
2023/06/20 12:27:40;;;;;;;3.60;3.30;;;;;;;;;;5064384;28;20432;-67
2023/06/20 12:30:08;;;;;;;8.75;6.90;;;;;;;;;;5062563;28;20516;-71
2023/06/20 12:32:35;;;;;;;4.03;3.73;;;;;;;;;;5058937;28;20438;-68
2023/06/20 12:35:02;;;;;;;3.70;3.30;;;;;;;;;;5064726;28;20870;-67
2023/06/20 12:37:29;;;;;;;3.40;3.20;;;;;;;;;;5063794;28;20566;-67
2023/06/20 12:39:58;;;;;;;3.50;3.20;;;;;;;;;;5055242;28;20442;-67
2023/06/20 12:42:25;;;;;;;5.70;3.08;;;;;;;;;;5065756;28;20423;-66
2023/06/20 12:44:52;;;;;;;4.60;3.10;;;;;;;;;;5060593;28;20438;-65
2023/06/20 12:47:19;;;;;;;3.40;3.20;;;;;;;;;;5058947;28;20587;-66
2023/06/20 12:49:46;;;;;;;3.00;2.80;;;;;;;;;;5057579;28;20490;-68
2023/06/20 12:52:13;;;;;;;3.00;2.80;;;;;;;;;;5058350;28;20460;-67
2023/06/20 12:54:40;;;;;;;3.00;2.80;;;;;;;;;;5062318;28;20443;-68
2023/06/20 12:57:09;;;;;;;3.00;2.80;;;;;;;;;;5061897;28;20431;-67
2023/06/20 12:59:36;;;;;;;3.10;2.80;;;;;;;;;;5064454;28;20437;-68
2023/06/20 13:02:03;;;;;;;3.10;2.90;;;;;;;;;;5056469;28;20436;-68
2023/06/20 13:04:30;;;;;;;3.00;2.70;;;;;;;;;;5062197;28;20458;-68
2023/06/20 13:06:57;;;;;;;3.00;2.80;;;;;;;;;;5062301;28;20825;-69
2023/06/20 13:09:25;;;;;;;3.03;2.80;;;;;;;;;;5060423;28;20427;-68
2023/06/20 13:11:52;;;;;;;3.08;2.78;;;;;;;;;;5058741;28;20423;-69
2023/06/20 13:14:20;;;;;;;2.93;2.73;;;;;;;;;;5054821;28;20432;-67
2023/06/20 13:16:49;;;;;;;2.93;2.73;;;;;;;;;;5075427;22;20442;-69
2023/06/20 13:19:18;;;;;;;2.95;2.75;;;;;;;;;;5059252;28;20439;-68
2023/06/20 13:21:45;;;;;;;2.90;2.70;;;;;;;;;;5064876;28;20428;-68
2023/06/20 13:24:13;;;;;;;2.70;2.50;;;;;;;;;;5061203;28;20470;-68
2023/06/20 13:26:40;;;;;;;3.20;2.70;;;;;;;;;;5059227;28;20456;-69
2023/06/20 13:29:07;;;;;;;2.90;2.50;;;;;;;;;;5047552;28;20433;-68
2023/06/20 13:31:35;;;;;;;3.50;2.80;;;;;;;;;;5048986;28;20413;-68
2023/06/20 13:34:02;;;;;;;2.55;2.45;;;;;;;;;;5049186;28;20444;-69
2023/06/20 13:36:30;;;;;;;2.40;2.20;;;;;;;;;;5046021;28;20444;-69
2023/06/20 13:38:58;;;;;;;2.90;2.60;;;;;;;;;;5045535;28;20956;-69
2023/06/20 13:41:25;;;;;;;2.58;2.38;;;;;;;;;;5046635;28;20433;-68
2023/06/20 13:43:52;;;;;;;2.30;2.20;;;;;;;;;;5047322;28;21085;-67
2023/06/20 13:46:19;;;;;;;2.35;2.05;;;;;;;;;;5041984;28;20440;-67
2023/06/20 13:48:50;;;;;;;2.33;2.22;;;;;;;;;;5045455;28;20433;-67
2023/06/20 13:51:17;;;;;;;3.20;3.00;;;;;;;;;;5043573;28;20425;-69
2023/06/20 13:53:45;;;;;;;3.13;2.60;;;;;;;;;;5046545;28;20433;-69
2023/06/20 13:56:12;;;;;;;2.80;2.60;;;;;;;;;;5044837;28;20552;-69
2023/06/20 13:58:39;;;;;;;2.50;2.30;;;;;;;;;;5047028;28;20429;-69
2023/06/20 14:01:06;;;;;;;2.65;2.45;;;;;;;;;;5042239;28;20439;-69
2023/06/20 14:03:33;;;;;;;2.78;2.47;;;;;;;;;;5047528;28;20440;-69
2023/06/20 14:06:02;;;;;;;2.95;2.75;;;;;;;;;;5045120;28;20472;-68
2023/06/20 14:08:29;;;;;;;2.58;2.38;;;;;;;;;;5046094;28;20454;-69
2023/06/20 14:10:57;;;;;;;2.50;2.30;;;;;;;;;;5046591;28;20425;-69
2023/06/20 14:13:24;;;;;;;3.00;2.70;;;;;;;;;;5039601;28;20417;-69
2023/06/20 14:15:51;;;;;;;2.95;2.75;;;;;;;;;;5040500;28;20438;-69
2023/06/20 14:18:18;;;;;;;2.53;2.33;;;;;;;;;;5045945;28;20764;-69
2023/06/20 14:20:45;;;;;;;2.80;2.50;;;;;;;;;;5042733;28;20508;-69
2023/06/20 14:23:13;;;;;;;3.80;2.72;;;;;;;;;;5041581;28;20429;-69
2023/06/20 14:25:40;;;;;;;2.72;2.53;;;;;;;;;;5045456;28;20437;-69
2023/06/20 14:28:07;;;;;;;2.70;2.50;;;;;;;;;;5043548;28;20431;-69
2023/06/20 14:30:34;;;;;;;2.80;2.60;;;;;;;;;;5040389;28;20462;-69
2023/06/20 14:33:01;;;;;;;2.60;2.40;;;;;;;;;;5048057;28;20453;-69
2023/06/20 14:35:29;;;;;;;2.55;2.35;;;;;;;;;;5046626;28;20884;-70
2023/06/20 14:37:56;;;;;;;2.65;2.50;;;;;;;;;;5043970;28;20780;-67
2023/06/20 14:40:24;;;;;;;4.57;3.00;;;;;;;;;;5044599;28;20539;-67
2023/06/20 14:42:51;;;;;;;2.70;2.50;;;;;;;;;;5046442;28;20432;-67
2023/06/20 14:45:18;;;;;;;3.00;2.80;;;;;;;;;;5040254;28;20464;-71
2023/06/20 14:47:45;;;;;;;2.70;2.30;;;;;;;;;;5047684;28;20440;-68